Hill Air Force Base Ogden US
ICAO: KHIF
IATA: HIF
Category: Medium
Scheduled Services: No

Elevation: 4789 ft
TransAlt. 18000 ft.

Airport Communications:
SALT LAKE CITY APP:25.787
SALT LAKE CITY APP:31.925
SALT LAKE CITY APP:121.1
ATIS:134.925
CLNC DEL:124.1
SALT LAKE CITY DEP:121.1
GND:121.6
419 OPS:25.21
PMSV METRO:34.23
COMD POST:38.13
PTD:139.3
TWR:127.15

KHIF Zoom In..

If you have problems with the map follow the link
https://www.worldairports.se/pages/airport.php?
ICAO=KHIF

Runways:

(A) RW 14 length 13508 ft width 200 ft
ILS 109.90 / hdg 139

(B) RW 32 length 13508 ft width 200 ft
---- / hdg 319

Location; KHIF
Day. 14 / Time. 05.04 Zulu
* Altimeter: 29.85
* Temperature: 01° c. 33.8°f.
* Wind from: 110° Speed 05 kn.
Dewpoint: 01° c.
Visibility: 10 Statute Miles.
Clouds: Scattered 600 ft.
Clouds: Overcast 1700 ft.
Conditions: Slight Drizzle.

KHIF 140504Z 11005KT 10SM -DZ SCT006 OVC017 01/01 A2985 RMK AO2A CIG 006V017 CIG 013 RWY32 SLP109 $


Wind From 110°
Speed 05 kn.

 
 
jpsmedia worldairports.se 2019   terms of use